Time;durP1;ratioP1;P1;durP2;ratioP2;P2;SDS_P1;SDS_P2;PMS_P1;PMS_P2;Temp;Humidity;BMP_temperature;BMP_pressure;BME280_temperature;BME280_humidity;BME280_pressure;Samples;Min_cycle;Max_cycle;Signal;HPM_P1;HPM_P2
2022/03/01 00:05:18;;;;;;;;;25.50;25.50;;;;;;;;2;261076975;261076975;-82
2022/03/01 00:14:18;;;;;;;;;63.00;31.50;;;;;;;;2;261077962;261077962;-82
2022/03/01 00:22:34;;;;;;;;;50.50;33.50;;;;;;;;2;261076359;261076359;-82
2022/03/01 00:31:34;;;;;;;;;34.00;27.00;;;;;;;;2;261076623;261076623;-81
2022/03/01 00:39:49;;;;;;;;;45.00;32.00;;;;;;;;2;261075275;261075275;-82
2022/03/01 00:48:50;;;;;;;;;47.00;26.50;;;;;;;;2;261075591;261075591;-81
2022/03/01 00:57:05;;;;;;;;;35.00;30.00;;;;;;;;2;261078249;261078249;-81
2022/03/01 01:06:06;;;;;;;;;24.50;24.50;;;;;;;;2;261075654;261075654;-82
2022/03/01 01:14:21;;;;;;;;;29.00;28.50;;;;;;;;2;261073888;261073888;-82
2022/03/01 01:23:21;;;;;;;;;44.00;25.50;;;;;;;;2;261078033;261078033;-81
2022/03/01 01:31:37;;;;;;;;;27.50;24.50;;;;;;;;2;261079936;261079936;-81
2022/03/01 01:40:37;;;;;;;;;31.00;27.00;;;;;;;;2;261072787;261072787;-82
2022/03/01 01:48:53;;;;;;;;;34.00;30.00;;;;;;;;2;261077884;261077884;-82
2022/03/01 01:57:53;;;;;;;;;36.00;30.00;;;;;;;;2;261076433;261076433;-81
2022/03/01 02:06:09;;;;;;;;;36.00;25.00;;;;;;;;2;261077142;261077142;-81
2022/03/01 02:15:09;;;;;;;;;32.00;30.50;;;;;;;;2;261078650;261078650;-81
2022/03/01 02:23:24;;;;;;;;;34.50;23.00;;;;;;;;2;261075235;261075235;-81
2022/03/01 02:32:25;;;;;;;;;39.00;35.00;;;;;;;;2;261076874;261076874;-81
2022/03/01 02:40:40;;;;;;;;;38.00;33.00;;;;;;;;2;261075809;261075809;-81
2022/03/01 02:49:41;;;;;;;;;40.00;36.00;;;;;;;;2;261073213;261073213;-81
2022/03/01 02:57:56;;;;;;;;;33.50;29.00;;;;;;;;2;261076935;261076935;-82
2022/03/01 03:06:56;;;;;;;;;42.50;34.50;;;;;;;;2;261077369;261077369;-82
2022/03/01 03:15:12;;;;;;;;;22.00;22.00;;;;;;;;2;261078489;261078489;-81
2022/03/01 03:24:13;;;;;;;;;37.50;30.50;;;;;;;;2;261080745;261080745;-82
2022/03/01 03:32:29;;;;;;;;;58.50;36.50;;;;;;;;2;261077318;261077318;-82
2022/03/01 03:41:29;;;;;;;;;40.00;32.00;;;;;;;;2;261073004;261073004;-81
2022/03/01 03:49:45;;;;;;;;;29.00;27.50;;;;;;;;2;261076201;261076201;-82
2022/03/01 03:58:45;;;;;;;;;44.00;31.50;;;;;;;;2;261075403;261075403;-82
2022/03/01 04:07:01;;;;;;;;;32.00;27.50;;;;;;;;2;261074035;261074035;-82
2022/03/01 04:16:02;;;;;;;;;35.50;28.50;;;;;;;;2;261074834;261074834;-81
2022/03/01 04:24:17;;;;;;;;;37.00;31.50;;;;;;;;2;261077333;261077333;-82
2022/03/01 04:33:17;;;;;;;;;34.00;32.00;;;;;;;;2;261075357;261075357;-81
2022/03/01 04:41:33;;;;;;;;;42.00;35.00;;;;;;;;2;261076161;261076161;-81
2022/03/01 04:50:33;;;;;;;;;38.00;34.50;;;;;;;;2;261073584;261073584;-81
2022/03/01 04:58:49;;;;;;;;;30.50;27.50;;;;;;;;2;261077695;261077695;-81
2022/03/01 05:07:49;;;;;;;;;39.50;31.50;;;;;;;;2;261078633;261078633;-81
2022/03/01 05:16:04;;;;;;;;;45.50;31.00;;;;;;;;2;261082188;261082188;-81
2022/03/01 05:25:06;;;;;;;;;41.00;31.00;;;;;;;;2;261075704;261075704;-81
2022/03/01 05:33:22;;;;;;;;;37.00;20.50;;;;;;;;2;261076600;261076600;-81
2022/03/01 05:42:23;;;;;;;;;44.00;29.00;;;;;;;;2;261077300;261077300;-81
2022/03/01 05:50:39;;;;;;;;;47.50;30.00;;;;;;;;2;261074720;261074720;-81
2022/03/01 05:59:39;;;;;;;;;34.50;27.50;;;;;;;;2;261078959;261078959;-81
2022/03/01 06:07:56;;;;;;;;;40.00;28.50;;;;;;;;2;261080323;261080323;-81
2022/03/01 06:16:56;;;;;;;;;35.00;26.00;;;;;;;;2;261078624;261078624;-80
2022/03/01 06:25:12;;;;;;;;;39.50;32.50;;;;;;;;2;261075677;261075677;-80
2022/03/01 06:34:12;;;;;;;;;58.00;36.50;;;;;;;;2;261083485;261083485;-81
2022/03/01 06:42:27;;;;;;;;;34.50;30.00;;;;;;;;2;261075141;261075141;-82
2022/03/01 06:51:28;;;;;;;;;45.50;32.50;;;;;;;;2;261078364;261078364;-82
2022/03/01 06:59:43;;;;;;;;;59.00;26.50;;;;;;;;2;261077995;261077995;-82
2022/03/01 07:08:44;;;;;;;;;32.50;31.50;;;;;;;;2;261078141;261078141;-83
2022/03/01 07:16:59;;;;;;;;;46.00;30.50;;;;;;;;2;261076267;261076267;-82
2022/03/01 07:26:01;;;;;;;;;42.50;26.50;;;;;;;;2;261073007;261073007;-83
2022/03/01 07:34:17;;;;;;;;;39.50;33.50;;;;;;;;2;261077175;261077175;-86
2022/03/01 07:43:17;;;;;;;;;42.00;26.00;;;;;;;;2;261076419;261076419;-82
2022/03/01 07:51:33;;;;;;;;;27.50;27.50;;;;;;;;2;261075305;261075305;-79
2022/03/01 08:00:33;;;;;;;;;44.00;30.50;;;;;;;;2;261075884;261075884;-80
2022/03/01 08:08:49;;;;;;;;;42.00;33.50;;;;;;;;2;261076338;261076338;-80
2022/03/01 08:17:51;;;;;;;;;38.00;30.00;;;;;;;;2;261077463;261077463;-80
2022/03/01 08:26:06;;;;;;;;;46.00;30.00;;;;;;;;2;261073272;261073272;-81
2022/03/01 08:35:07;;;;;;;;;46.50;33.00;;;;;;;;2;261075885;261075885;-80
2022/03/01 08:43:23;;;;;;;;;43.50;28.50;;;;;;;;2;261079026;261079026;-80
2022/03/01 08:52:23;;;;;;;;;45.50;32.50;;;;;;;;2;261079102;261079102;-80
2022/03/01 09:00:39;;;;;;;;;58.00;36.00;;;;;;;;2;261076320;261076320;-80
2022/03/01 09:09:40;;;;;;;;;50.50;40.00;;;;;;;;2;261073694;261073694;-81
2022/03/01 09:17:55;;;;;;;;;59.50;28.50;;;;;;;;2;261079465;261079465;-81
2022/03/01 09:27:00;;;;;;;;;39.50;33.00;;;;;;;;2;261075208;261075208;-80
2022/03/01 09:35:17;;;;;;;;;52.00;36.50;;;;;;;;2;261075299;261075299;-81
2022/03/01 09:44:18;;;;;;;;;49.50;40.00;;;;;;;;2;261074525;261074525;-80
2022/03/01 09:52:33;;;;;;;;;41.50;37.50;;;;;;;;2;261077176;261077176;-81
2022/03/01 10:01:34;;;;;;;;;49.50;36.00;;;;;;;;2;261076643;261076643;-79
2022/03/01 10:09:49;;;;;;;;;27.50;26.00;;;;;;;;2;261074222;261074222;-79
2022/03/01 10:18:52;;;;;;;;;54.00;37.50;;;;;;;;2;261076720;261076720;-80
2022/03/01 10:27:07;;;;;;;;;53.50;38.50;;;;;;;;2;261078097;261078097;-80
2022/03/01 10:36:08;;;;;;;;;34.50;32.50;;;;;;;;2;261079052;261079052;-80
2022/03/01 10:44:25;;;;;;;;;37.50;34.50;;;;;;;;2;261076405;261076405;-79
2022/03/01 10:53:29;;;;;;;;;63.50;40.00;;;;;;;;2;261075991;261075991;-81
2022/03/01 11:01:44;;;;;;;;;52.50;41.50;;;;;;;;2;261075451;261075451;-81
2022/03/01 11:10:45;;;;;;;;;47.50;31.50;;;;;;;;2;261075243;261075243;-81
2022/03/01 11:19:19;;;;;;;;;32.50;31.00;;;;;;;;2;261078492;261078492;-81
2022/03/01 11:28:28;;;;;;;;;40.00;30.50;;;;;;;;2;261077189;261077189;-81
2022/03/01 11:36:52;;;;;;;;;42.50;28.50;;;;;;;;2;261077992;261077992;-81
2022/03/01 11:45:57;;;;;;;;;39.50;27.50;;;;;;;;2;261075116;261075116;-81
2022/03/01 11:54:16;;;;;;;;;27.00;26.50;;;;;;;;2;261076653;261076653;-81
2022/03/01 12:03:20;;;;;;;;;52.00;33.50;;;;;;;;2;261078096;261078096;-81
2022/03/01 12:11:35;;;;;;;;;48.00;41.50;;;;;;;;2;261075291;261075291;-80
2022/03/01 12:20:38;;;;;;;;;40.00;34.50;;;;;;;;2;261079206;261079206;-81
2022/03/01 12:28:56;;;;;;;;;44.00;29.00;;;;;;;;2;261078017;261078017;-80
2022/03/01 12:38:10;;;;;;;;;26.50;26.50;;;;;;;;2;261075869;261075869;-80
2022/03/01 12:46:27;;;;;;;;;39.00;24.50;;;;;;;;2;261076095;261076095;-81
2022/03/01 12:55:28;;;;;;;;;22.50;22.50;;;;;;;;2;261077732;261077732;-81
2022/03/01 13:03:46;;;;;;;;;34.50;28.00;;;;;;;;2;261075759;261075759;-81
2022/03/01 13:12:50;;;;;;;;;19.50;19.50;;;;;;;;2;261076303;261076303;-81
2022/03/01 13:21:06;;;;;;;;;31.00;26.00;;;;;;;;2;261073932;261073932;-81
2022/03/01 13:30:06;;;;;;;;;26.50;23.00;;;;;;;;2;261077206;261077206;-81
2022/03/01 13:38:22;;;;;;;;;31.50;22.50;;;;;;;;2;261073544;261073544;-80
2022/03/01 13:47:30;;;;;;;;;23.50;23.50;;;;;;;;2;261075907;261075907;-81
2022/03/01 13:55:46;;;;;;;;;30.00;25.00;;;;;;;;2;261072164;261072164;-81
2022/03/01 14:04:55;;;;;;;;;25.50;21.50;;;;;;;;2;261074511;261074511;-81
2022/03/01 14:13:14;;;;;;;;;25.00;17.00;;;;;;;;2;261076027;261076027;-81
2022/03/01 14:22:14;;;;;;;;;26.00;20.50;;;;;;;;2;261075454;261075454;-81
2022/03/01 14:30:30;;;;;;;;;20.00;15.50;;;;;;;;2;261076597;261076597;-81
2022/03/01 14:39:31;;;;;;;;;37.00;25.50;;;;;;;;2;261074363;261074363;-82
2022/03/01 14:47:47;;;;;;;;;26.00;18.00;;;;;;;;2;261075674;261075674;-81
2022/03/01 14:56:49;;;;;;;;;27.50;23.50;;;;;;;;2;261075785;261075785;-81
2022/03/01 15:05:05;;;;;;;;;23.00;23.00;;;;;;;;2;261077313;261077313;-80
2022/03/01 15:14:05;;;;;;;;;34.00;20.00;;;;;;;;2;261074934;261074934;-80
2022/03/01 15:22:21;;;;;;;;;43.00;26.00;;;;;;;;2;261076744;261076744;-80
2022/03/01 15:31:21;;;;;;;;;28.50;20.50;;;;;;;;2;261078212;261078212;-80
2022/03/01 15:39:41;;;;;;;;;24.00;19.50;;;;;;;;2;261075099;261075099;-80
2022/03/01 15:48:41;;;;;;;;;35.50;26.50;;;;;;;;2;261076727;261076727;-80
2022/03/01 15:56:57;;;;;;;;;21.50;17.00;;;;;;;;2;261074072;261074072;-81
2022/03/01 16:05:57;;;;;;;;;25.50;21.50;;;;;;;;2;261076300;261076300;-81
2022/03/01 16:14:13;;;;;;;;;27.00;18.00;;;;;;;;2;261074179;261074179;-81
2022/03/01 16:23:13;;;;;;;;;16.00;13.00;;;;;;;;2;261075595;261075595;-81
2022/03/01 16:31:29;;;;;;;;;19.00;16.00;;;;;;;;2;261076138;261076138;-81
2022/03/01 16:40:30;;;;;;;;;28.50;25.50;;;;;;;;2;261074046;261074046;-81
2022/03/01 16:48:46;;;;;;;;;25.00;25.00;;;;;;;;2;261075030;261075030;-81
2022/03/01 16:57:46;;;;;;;;;12.50;12.50;;;;;;;;2;261073361;261073361;-80
2022/03/01 17:06:02;;;;;;;;;33.00;21.00;;;;;;;;2;261075032;261075032;-80
2022/03/01 17:15:03;;;;;;;;;17.50;14.50;;;;;;;;2;261075577;261075577;-80
2022/03/01 17:23:20;;;;;;;;;13.00;13.00;;;;;;;;2;261074798;261074798;-80
2022/03/01 17:32:20;;;;;;;;;16.50;16.50;;;;;;;;2;261076317;261076317;-80
2022/03/01 17:40:36;;;;;;;;;42.50;15.00;;;;;;;;2;261072589;261072589;-80
2022/03/01 17:49:37;;;;;;;;;13.50;13.50;;;;;;;;2;261074346;261074346;-81
2022/03/01 17:57:52;;;;;;;;;21.50;17.50;;;;;;;;2;261072327;261072327;-80
2022/03/01 18:06:53;;;;;;;;;42.00;18.00;;;;;;;;2;261073097;261073097;-80
2022/03/01 18:15:09;;;;;;;;;26.00;18.50;;;;;;;;2;261075572;261075572;-81
2022/03/01 18:24:09;;;;;;;;;23.00;20.00;;;;;;;;2;261072151;261072151;-80
2022/03/01 18:32:25;;;;;;;;;23.00;21.50;;;;;;;;2;261077251;261077251;-80
2022/03/01 18:41:25;;;;;;;;;19.00;15.00;;;;;;;;2;261075893;261075893;-80
2022/03/01 18:49:40;;;;;;;;;20.00;20.00;;;;;;;;2;261077986;261077986;-81
2022/03/01 18:58:43;;;;;;;;;26.00;26.00;;;;;;;;2;261074168;261074168;-80
2022/03/01 19:06:58;;;;;;;;;31.50;25.00;;;;;;;;2;261075429;261075429;-80
2022/03/01 19:15:58;;;;;;;;;18.50;11.50;;;;;;;;2;261075642;261075642;-81
2022/03/01 19:24:14;;;;;;;;;43.50;31.00;;;;;;;;2;261075833;261075833;-81
2022/03/01 19:33:14;;;;;;;;;48.50;25.50;;;;;;;;2;261074022;261074022;-81
2022/03/01 19:41:30;;;;;;;;;27.50;22.50;;;;;;;;2;261074398;261074398;-82
2022/03/01 19:50:30;;;;;;;;;41.00;32.00;;;;;;;;2;261075199;261075199;-81
2022/03/01 19:58:46;;;;;;;;;30.50;29.00;;;;;;;;2;261076739;261076739;-80
2022/03/01 20:07:47;;;;;;;;;41.50;29.00;;;;;;;;2;261075632;261075632;-80
2022/03/01 20:16:02;;;;;;;;;37.00;33.00;;;;;;;;2;261074002;261074002;-81
2022/03/01 20:25:03;;;;;;;;;17.50;17.50;;;;;;;;2;261077970;261077970;-82
2022/03/01 20:33:19;;;;;;;;;32.00;25.00;;;;;;;;2;261079048;261079048;-81
2022/03/01 20:42:19;;;;;;;;;35.50;25.50;;;;;;;;2;261075951;261075951;-82
2022/03/01 20:50:40;;;;;;;;;27.00;27.00;;;;;;;;2;261077054;261077054;-79
2022/03/01 20:59:40;;;;;;;;;40.00;33.50;;;;;;;;2;261077595;261077595;-80
2022/03/01 21:07:56;;;;;;;;;25.00;25.00;;;;;;;;2;261081589;261081589;-81
2022/03/01 21:16:57;;;;;;;;;45.50;27.00;;;;;;;;2;261077715;261077715;-81
2022/03/01 21:25:12;;;;;;;;;45.50;31.00;;;;;;;;2;261075761;261075761;-80
2022/03/01 21:34:13;;;;;;;;;27.50;27.50;;;;;;;;2;261079445;261079445;-81
2022/03/01 21:42:28;;;;;;;;;41.00;32.00;;;;;;;;2;261080402;261080402;-81
2022/03/01 21:51:29;;;;;;;;;37.50;26.00;;;;;;;;2;261080342;261080342;-81
2022/03/01 21:59:44;;;;;;;;;30.00;28.00;;;;;;;;2;261077592;261077592;-81
2022/03/01 22:08:44;;;;;;;;;26.50;26.50;;;;;;;;2;261078480;261078480;-81
2022/03/01 22:17:00;;;;;;;;;48.00;26.00;;;;;;;;2;261080569;261080569;-81
2022/03/01 22:26:00;;;;;;;;;34.50;22.50;;;;;;;;2;261081429;261081429;-81
2022/03/01 22:34:15;;;;;;;;;37.00;28.50;;;;;;;;2;261080356;261080356;-81
2022/03/01 22:43:16;;;;;;;;;31.00;23.00;;;;;;;;2;261079985;261079985;-81
2022/03/01 22:51:31;;;;;;;;;44.00;31.00;;;;;;;;2;261078186;261078186;-81
2022/03/01 23:00:32;;;;;;;;;34.50;30.00;;;;;;;;2;261081126;261081126;-81
2022/03/01 23:08:47;;;;;;;;;41.00;29.50;;;;;;;;2;261079339;261079339;-81
2022/03/01 23:17:48;;;;;;;;;48.00;31.00;;;;;;;;2;261081759;261081759;-81
2022/03/01 23:26:04;;;;;;;;;33.00;31.50;;;;;;;;2;261079296;261079296;-81
2022/03/01 23:35:10;;;;;;;;;47.00;28.50;;;;;;;;2;261079739;261079739;-80
2022/03/01 23:43:28;;;;;;;;;50.00;37.00;;;;;;;;2;261077981;261077981;-81
2022/03/01 23:52:28;;;;;;;;;27.00;27.00;;;;;;;;2;261076290;261076290;-81
